| time (UTC) | temp C | wind direction | speed KPH | gust KPH | rain 1hr cm | rain 24hr cm | rain mn cm | humidity % | barometer mb |
| 20260504034528 | 21 | 0 | 0.0 | 4.8 | 0.00 | 0.00 | 0.00 | 82 | 1018.6 |
| 20260504033030 | 21 | 97 | 0.0 | 6.4 | 0.00 | 0.00 | 0.00 | 82 | 1018.5 |
| 20260504031528 | 21 | 98 | 1.6 | 6.4 | 0.00 | 0.00 | 0.00 | 81 | 1018.6 |
| 20260504030033 | 21 | 112 | 1.6 | 6.4 | 0.00 | 0.00 | 0.00 | 80 | 1018.5 |
| 20260504024528 | 21 | 76 | 3.2 | 9.7 | 0.00 | 0.00 | 0.00 | 80 | 1018.5 |
| 20260504023028 | 21 | 72 | 1.6 | 9.7 | 0.00 | 0.00 | 0.00 | 79 | 1018.3 |
| 20260504021533 | 21 | 95 | 1.6 | 9.7 | 0.00 | 0.00 | 0.00 | 78 | 1018.2 |
| 20260504020031 | 22 | 62 | 3.2 | 14.5 | 0.00 | 0.00 | 0.00 | 77 | 1018.3 |
| 20260504014537 | 22 | 85 | 3.2 | 9.7 | 0.00 | 0.00 | 0.00 | 77 | 1018.3 |
| 20260504013029 | 22 | 0 | 1.6 | 6.4 | 0.00 | 0.00 | 0.00 | 75 | 1018.3 |
| 20260504011528 | 22 | 90 | 1.6 | 9.7 | 0.00 | 0.00 | 0.00 | 74 | 1018.3 |
| 20260504010030 | 22 | 61 | 3.2 | 17.7 | 0.00 | 0.00 | 0.00 | 73 | 1018.2 |
| 20260504004528 | 23 | 57 | 3.2 | 16.1 | 0.00 | 0.00 | 0.00 | 72 | 1017.8 |
| 20260504003034 | 23 | 102 | 4.8 | 19.3 | 0.00 | 0.00 | 0.00 | 71 | 1017.8 |
| 20260504001532 | 23 | 75 | 8.0 | 19.3 | 0.00 | 0.00 | 0.00 | 70 | 1017.6 |
| 20260504000028 | 23 | 53 | 8.0 | 22.5 | 0.00 | 0.00 | 0.00 | 69 | 1017.7 |
| 20260503234529 | 23 | 70 | 11.3 | 22.5 | 0.00 | 0.00 | 0.00 | 68 | 1017.8 |
| 20260503233029 | 24 | 82 | 8.0 | 19.3 | 0.00 | 0.00 | 0.00 | 67 | 1017.9 |
| 20260503231530 | 24 | 65 | 8.0 | 20.9 | 0.00 | 0.00 | 0.00 | 67 | 1018.0 |
| 20260503230029 | 25 | 61 | 8.0 | 24.1 | 0.00 | 0.00 | 0.00 | 66 | 1018.3 |
| 20260503224528 | 24 | 67 | 8.0 | 19.3 | 0.00 | 0.00 | 0.00 | 66 | 1018.3 |
| 20260503223028 | 25 | 94 | 8.0 | 19.3 | 0.00 | 0.00 | 0.00 | 64 | 1018.5 |
| 20260503221529 | 25 | 36 | 9.7 | 22.5 | 0.00 | 0.00 | 0.00 | 65 | 1018.6 |
| 20260503220030 | 25 | 63 | 6.4 | 20.9 | 0.00 | 0.00 | 0.00 | 64 | 1019.1 |
| 20260503214528 | 25 | 37 | 11.3 | 24.1 | 0.00 | 0.00 | 0.00 | 62 | 1018.8 |
| 20260503213030 | 25 | 83 | 8.0 | 25.7 | 0.00 | 0.00 | 0.00 | 62 | 1018.8 |
| 20260503211530 | 25 | 53 | 11.3 | 19.3 | 0.00 | 0.00 | 0.00 | 61 | 1019.1 |
| 20260503210028 | 25 | 65 | 8.0 | 25.7 | 0.00 | 0.00 | 0.00 | 61 | 1019.2 |
| 20260503204528 | 25 | 128 | 3.2 | 20.9 | 0.00 | 0.00 | 0.00 | 60 | 1019.5 |
| 20260503203029 | 25 | 61 | 8.0 | 17.7 | 0.00 | 0.00 | 0.00 | 60 | 1020.0 |
| 20260503201530 | 25 | 98 | 9.7 | 17.7 | 0.00 | 0.00 | 0.00 | 60 | 1020.4 |
| 20260503200029 | 25 | 78 | 8.0 | 22.5 | 0.00 | 0.00 | 0.00 | 61 | 1020.5 |
| 20260503194533 | 25 | 42 | 11.3 | 25.7 | 0.00 | 0.00 | 0.00 | 61 | 1020.7 |
| 20260503193029 | 25 | 53 | 9.7 | 24.1 | 0.00 | 0.00 | 0.00 | 60 | 1020.7 |
| 20260503191536 | 25 | 50 | 11.3 | 24.1 | 0.00 | 0.00 | 0.00 | 62 | 1021.0 |
| 20260503190027 | 26 | 102 | 8.0 | 20.9 | 0.00 | 0.00 | 0.00 | 59 | 1021.1 |
| 20260503184529 | 25 | 59 | 8.0 | 20.9 | 0.00 | 0.00 | 0.00 | 60 | 1021.5 |
| 20260503183030 | 26 | 58 | 11.3 | 22.5 | 0.00 | 0.00 | 0.00 | 58 | 1021.6 |
| 20260503181527 | 25 | 314 | 8.0 | 16.1 | 0.00 | 0.00 | 0.00 | 59 | 1021.6 |
| 20260503180042 | 25 | 39 | 8.0 | 22.5 | 0.00 | 0.00 | 0.00 | 59 | 1022.0 |
| 20260503174528 | 25 | 32 | 11.3 | 20.9 | 0.00 | 0.00 | 0.00 | 61 | 1022.0 |
| 20260503173028 | 25 | 57 | 4.8 | 22.5 | 0.00 | 0.00 | 0.00 | 61 | 1022.1 |
| 20260503171529 | 25 | 33 | 8.0 | 25.7 | 0.00 | 0.00 | 0.00 | 62 | 1022.4 |
| 20260503081526 | 17 | 327 | 0.0 | 4.8 | 0.00 | 0.00 | 0.00 | 82 | 1020.9 |
| 20260503071531 | 17 | 0 | 0.0 | 3.2 | 0.00 | 0.00 | 0.00 | 83 | 1021.3 |
| 20260503054536 | 18 | 294 | 0.0 | 4.8 | 0.00 | 0.00 | 0.00 | 79 | 1021.9 |
| 20260503053029 | 18 | 0 | 0.0 | 4.8 | 0.00 | 0.00 | 0.00 | 80 | 1022.1 |
| 20260503051526 | 18 | 0 | 0.0 | 4.8 | 0.00 | 0.00 | 0.00 | 80 | 1022.0 |
| 20260503050034 | 18 | 0 | 0.0 | 3.2 | 0.00 | 0.00 | 0.00 | 79 | 1021.8 |
| 20260503044527 | 18 | 0 | 0.0 | 1.6 | 0.00 | 0.00 | 0.00 | 78 | 1021.7 |
| 20260503043040 | 18 | 0 | 0.0 | 1.6 | 0.00 | 0.00 | 0.00 | 78 | 1021.7 |
| 20260503041528 | 18 | 0 | 0.0 | 6.4 | 0.00 | 0.00 | 0.00 | 78 | 1021.7 |
| 20260503040030 | 18 | 0 | 0.0 | 4.8 | 0.00 | 0.00 | 0.00 | 78 | 1021.8 |